»·PEaware :: N160RA KAVX-KSAN

N160RA :: KAVX-KSAN

FLIGHT INFORMATION

Flight Status: Arrived
Operator: Privately registered:
United States
More flights under this callsign
Pilot: Cody B. (17747)
Aircraft: CESSNA 172 SKYHAWK
(C172)
More flights by this aircraft type
Origin: KAVX Catalina
United States
Destination: KSAN San Diego Intl-Lindbergh
United States
More flights between these airports :: More routes between these airports
Route: +SXC V208 OCN V23 MZB
File this flight plan on PilotEdge
Remarks: TEC route CSTP56
Altitude:
(Current/Filed)
7,000ft
Speed:
(Current/Filed)
100kts
Departed: 10-Feb-20 04:15 PM
Arrived: 10-Feb-20 05:18 PM
Distance/Time
Traveled:
74nm/1:03
Distance/Time
To Go:
Arrived

Flight Plot

Page will automatically refresh every two minutes.


Map Options




Map Legend


Flown Route
Filed Route
Departure Airport
Arrival Airport
Navaid (VOR, NDB)
Fix

Horizontal Profiles

Position Reports

Time Latitude Longitude Heading Altitude Ground
Speed
10-Feb-20 15:37 33.403338 -118.416241 12 1553ft 0kts
10-Feb-20 15:38 33.403338 -118.416241 12 1553ft 0kts
10-Feb-20 15:39 33.403338 -118.416241 12 1553ft 0kts
10-Feb-20 15:40 33.403338 -118.416241 12 1553ft 0kts
10-Feb-20 15:41 33.403338 -118.416241 12 1553ft 0kts
10-Feb-20 15:42 33.403338 -118.416241 12 1553ft 0kts
10-Feb-20 15:43 33.403338 -118.416241 12 1553ft 0kts
10-Feb-20 15:44 33.403338 -118.416241 12 1553ft 0kts
10-Feb-20 15:45 33.403338 -118.416241 12 1553ft 0kts
10-Feb-20 15:46 33.403338 -118.416241 12 1553ft 0kts
10-Feb-20 15:47 33.403338 -118.416241 12 1553ft 0kts
10-Feb-20 15:48 33.403338 -118.416241 12 1553ft 0kts
10-Feb-20 15:49 33.403338 -118.416241 12 1553ft 0kts
10-Feb-20 15:50 33.403338 -118.416241 12 1553ft 0kts
10-Feb-20 15:51 33.403347 -118.416238 17 1553ft 0kts
10-Feb-20 15:52 33.403347 -118.416238 17 1553ft 0kts
10-Feb-20 15:53 33.403347 -118.416238 17 1553ft 0kts
10-Feb-20 15:54 33.403347 -118.416238 17 1553ft 0kts
10-Feb-20 15:55 33.403347 -118.416238 17 1553ft 0kts
10-Feb-20 15:56 33.403347 -118.416238 17 1553ft 0kts
10-Feb-20 15:57 33.403347 -118.416238 17 1553ft 0kts
10-Feb-20 15:58 33.403347 -118.416238 17 1553ft 0kts
10-Feb-20 15:59 33.403347 -118.416238 17 1553ft 0kts
10-Feb-20 16:00 33.403347 -118.416238 17 1553ft 0kts
10-Feb-20 16:01 33.403347 -118.416238 17 1553ft 0kts
10-Feb-20 16:02 33.403347 -118.416238 17 1553ft 0kts
10-Feb-20 16:03 33.403347 -118.416238 17 1553ft 0kts
10-Feb-20 16:04 33.403347 -118.416238 17 1553ft 0kts
10-Feb-20 16:05 33.403347 -118.416238 17 1553ft 0kts
10-Feb-20 16:06 33.403347 -118.416238 17 1553ft 0kts
10-Feb-20 16:07 33.403347 -118.416238 17 1553ft 0kts
10-Feb-20 16:08 33.403347 -118.416238 17 1553ft 0kts
10-Feb-20 16:09 33.403436 -118.416229 345 1553ft 2kts
10-Feb-20 16:10 33.404724 -118.415501 61 1546ft 14kts
10-Feb-20 16:11 33.406920 -118.411832 54 1504ft 12kts
10-Feb-20 16:12 33.407290 -118.411343 332 1498ft 0kts
10-Feb-20 16:13 33.407314 -118.411357 333 1498ft 3kts
10-Feb-20 16:14 33.400271 -118.425044 250 1832ft 75kts
10-Feb-20 16:15 33.389348 -118.447278 243 2462ft 87kts
10-Feb-20 16:16 33.362936 -118.443061 133 2707ft 125kts
10-Feb-20 16:17 33.351596 -118.404549 85 3009ft 124kts
10-Feb-20 16:18 33.352564 -118.365856 77 3615ft 105kts
10-Feb-20 16:19 33.356940 -118.333086 67 4316ft 92kts
10-Feb-20 16:20 33.360947 -118.303917 86 4957ft 90kts
10-Feb-20 16:21 33.357014 -118.267720 100 5031ft 127kts
10-Feb-20 16:22 33.347216 -118.225347 102 5031ft 132kts
10-Feb-20 16:23 33.339373 -118.182717 96 5030ft 130kts
10-Feb-20 16:24 33.333441 -118.140040 93 5027ft 129kts
10-Feb-20 16:25 33.328639 -118.097230 93 5027ft 130kts
10-Feb-20 16:26 33.322753 -118.055317 92 5027ft 124kts
10-Feb-20 16:27 33.317730 -118.014809 94 5029ft 122kts
10-Feb-20 16:28 33.311500 -117.974574 95 5027ft 122kts
10-Feb-20 16:29 33.305480 -117.934636 94 5028ft 121kts
10-Feb-20 16:30 33.299370 -117.894667 95 5028ft 122kts
10-Feb-20 16:31 33.292678 -117.854817 97 5028ft 122kts
10-Feb-20 16:32 33.285422 -117.814997 98 5027ft 123kts
10-Feb-20 16:33 33.278399 -117.775368 102 5028ft 123kts
10-Feb-20 16:34 33.274194 -117.735416 80 5028ft 121kts
10-Feb-20 16:35 33.274658 -117.695146 97 5026ft 124kts
10-Feb-20 16:36 33.270057 -117.654278 91 5029ft 123kts
10-Feb-20 16:37 33.266780 -117.613228 88 5028ft 123kts
10-Feb-20 16:38 33.266664 -117.572705 82 5027ft 122kts
10-Feb-20 16:39 33.258117 -117.533305 104 5028ft 124kts
10-Feb-20 16:40 33.246080 -117.494313 107 5028ft 125kts
10-Feb-20 16:41 33.223626 -117.464451 154 5028ft 133kts
10-Feb-20 16:42 33.193081 -117.441270 139 5029ft 131kts
10-Feb-20 16:43 33.163599 -117.415072 138 5031ft 131kts
10-Feb-20 16:44 33.128173 -117.401574 167 5030ft 136kts
10-Feb-20 16:45 33.092386 -117.386573 152 5025ft 136kts
10-Feb-20 16:46 33.058856 -117.365717 139 5021ft 134kts
10-Feb-20 16:47 33.029302 -117.338379 143 5021ft 135kts
10-Feb-20 16:48 32.995704 -117.317567 151 5016ft 137kts
10-Feb-20 16:49 32.960314 -117.300067 155 5013ft 138kts
10-Feb-20 16:50 32.924424 -117.283949 157 5013ft 136kts
10-Feb-20 16:51 32.888532 -117.268843 157 5007ft 136kts
10-Feb-20 16:52 32.854249 -117.254783 157 5006ft 123kts
10-Feb-20 16:53 32.822932 -117.241216 146 5007ft 116kts
10-Feb-20 16:54 32.807703 -117.210524 101 5011ft 109kts
10-Feb-20 16:56 32.798193 -117.176429 107 5009ft 110kts
10-Feb-20 16:57 32.789137 -117.142149 96 5009ft 106kts
10-Feb-20 16:58 32.781362 -117.108447 97 5009ft 105kts
10-Feb-20 16:59 32.773477 -117.074172 98 4998ft 108kts
10-Feb-20 17:00 32.765412 -117.039754 98 4989ft 108kts
10-Feb-20 17:01 32.757482 -117.005547 97 4982ft 106kts
10-Feb-20 17:02 32.749703 -116.971926 98 4974ft 106kts
10-Feb-20 17:03 32.741685 -116.937664 97 4969ft 109kts
10-Feb-20 17:04 32.733653 -116.902981 98 4957ft 109kts
10-Feb-20 17:05 32.709010 -116.888410 186 4955ft 119kts
10-Feb-20 17:06 32.676606 -116.902251 240 4121ft 132kts
10-Feb-20 17:07 32.668956 -116.935974 291 3793ft 94kts
10-Feb-20 17:08 32.678424 -116.964642 301 3389ft 92kts
10-Feb-20 17:09 32.685888 -116.986905 296 3388ft 68kts
10-Feb-20 17:10 32.690034 -117.014107 286 3242ft 88kts
10-Feb-20 17:11 32.697022 -117.041885 292 3077ft 87kts
10-Feb-20 17:12 32.703937 -117.070194 291 2796ft 95kts
10-Feb-20 17:13 32.712576 -117.101467 292 2132ft 100kts
10-Feb-20 17:14 32.718528 -117.127475 287 1456ft 80kts
10-Feb-20 17:15 32.724238 -117.149802 283 688ft 67kts
10-Feb-20 17:16 32.728901 -117.170403 281 262ft 65kts
10-Feb-20 17:16 32.732973 -117.187359 288 16ft 49kts
10-Feb-20 17:18 32.734717 -117.189717 110 17ft 11kts
10-Feb-20 17:19 32.733509 -117.184730 106 17ft 17kts
10-Feb-20 17:19 32.732329 -117.179872 104 18ft 17kts
10-Feb-20 17:20 32.732500 -117.178249 94 20ft 0kts

Navigation Log

Ident Type
Flight plan parsing failed, navigation log unavailable